Time,TemperatureF,DewpointF,PressureIn,WindDirection,WindDirectionDegrees,WindSpeedMPH,WindSpeedGustMPH,Humidity,HourlyPrecipIn,Conditions,Clouds,dailyrainin,SoftwareType,DateUTC
2013-04-17 00:00:00,64.0,60.1,30.20,East,95,0.0,1.0,87,0.00,,,0.00,Wunderground v.1.15,2013-04-17 04:00:00,
2013-04-17 00:05:00,63.9,60.3,30.21,East,95,0.0,1.0,88,0.00,,,0.00,Wunderground v.1.15,2013-04-17 04:05:00,
2013-04-17 00:10:00,63.8,60.2,30.21,East,95,0.0,1.0,88,0.00,,,0.00,Wunderground v.1.15,2013-04-17 04:10:00,
2013-04-17 00:20:00,63.6,60.0,30.21,East,95,0.0,1.0,88,0.00,,,0.00,Wunderground v.1.15,2013-04-17 04:20:00,
2013-04-17 00:25:00,63.5,59.9,30.21,East,95,0.0,1.0,88,0.00,,,0.00,Wunderground v.1.15,2013-04-17 04:25:00,
2013-04-17 00:30:00,63.4,60.1,30.21,East,95,0.0,1.0,89,0.00,,,0.00,Wunderground v.1.15,2013-04-17 04:30:00,
2013-04-17 00:35:00,63.3,60.0,30.20,East,95,0.0,1.0,89,0.00,,,0.00,Wunderground v.1.15,2013-04-17 04:35:00,
2013-04-17 00:40:00,63.3,60.0,30.20,East,95,0.0,1.0,89,0.00,,,0.00,Wunderground v.1.15,2013-04-17 04:40:00,
2013-04-17 00:45:00,63.2,60.2,30.20,East,95,0.0,1.0,90,0.00,,,0.00,Wunderground v.1.15,2013-04-17 04:45:00,
2013-04-17 00:50:00,63.1,59.8,30.20,East,95,0.0,1.0,89,0.00,,,0.00,Wunderground v.1.15,2013-04-17 04:50:00,
2013-04-17 00:55:00,63.1,60.1,30.20,East,95,0.0,1.0,90,0.00,,,0.00,Wunderground v.1.15,2013-04-17 04:55:00,
2013-04-17 01:05:00,62.9,59.9,30.19,East,95,0.0,1.0,90,0.00,,,0.00,Wunderground v.1.15,2013-04-17 05:05:00,
2013-04-17 01:10:00,62.8,59.8,30.19,East,95,0.0,1.0,90,0.00,,,0.00,Wunderground v.1.15,2013-04-17 05:10:00,
2013-04-17 01:15:00,62.8,59.8,30.19,East,95,0.0,1.0,90,0.00,,,0.00,Wunderground v.1.15,2013-04-17 05:15:00,
2013-04-17 01:20:00,62.7,59.7,30.19,East,95,0.0,1.0,90,0.00,,,0.00,Wunderground v.1.15,2013-04-17 05:20:00,
2013-04-17 01:25:00,62.6,59.6,30.20,East,95,0.0,1.0,90,0.00,,,0.00,Wunderground v.1.15,2013-04-17 05:25:00,
2013-04-17 01:30:00,62.5,59.5,30.20,East,95,0.0,1.0,90,0.00,,,0.00,Wunderground v.1.15,2013-04-17 05:30:00,
2013-04-17 01:35:00,62.5,59.5,30.20,East,95,0.0,1.0,90,0.00,,,0.00,Wunderground v.1.15,2013-04-17 05:35:00,
2013-04-17 01:40:00,62.4,59.4,30.20,East,95,0.0,1.0,90,0.00,,,0.00,Wunderground v.1.15,2013-04-17 05:40:00,
2013-04-17 01:45:00,62.3,59.6,30.19,East,95,0.0,1.0,91,0.00,,,0.00,Wunderground v.1.15,2013-04-17 05:45:00,
2013-04-17 01:50:00,62.3,59.6,30.19,East,95,0.0,1.0,91,0.00,,,0.00,Wunderground v.1.15,2013-04-17 05:50:00,
2013-04-17 01:55:00,62.2,59.5,30.19,East,95,0.0,1.0,91,0.00,,,0.00,Wunderground v.1.15,2013-04-17 05:55:00,
2013-04-17 02:00:00,62.1,59.4,30.19,East,95,0.0,1.0,91,0.00,,,0.00,Wunderground v.1.15,2013-04-17 06:00:00,
2013-04-17 02:10:00,61.9,59.2,30.19,East,95,0.0,1.0,91,0.00,,,0.00,Wunderground v.1.15,2013-04-17 06:10:00,
2013-04-17 02:15:00,61.8,59.1,30.19,East,95,0.0,1.0,91,0.00,,,0.00,Wunderground v.1.15,2013-04-17 06:15:00,
2013-04-17 02:20:00,61.7,59.0,30.19,East,95,0.0,1.0,91,0.00,,,0.00,Wunderground v.1.15,2013-04-17 06:20:00,
2013-04-17 02:25:00,61.6,58.9,30.19,East,95,0.0,1.0,91,0.00,,,0.00,Wunderground v.1.15,2013-04-17 06:25:00,
2013-04-17 02:30:00,61.5,58.8,30.19,East,95,0.0,1.0,91,0.00,,,0.00,Wunderground v.1.15,2013-04-17 06:30:00,
2013-04-17 02:35:00,61.4,58.7,30.19,East,95,0.0,1.0,91,0.00,,,0.00,Wunderground v.1.15,2013-04-17 06:35:00,
2013-04-17 02:40:00,61.4,58.7,30.19,East,95,0.0,1.0,91,0.00,,,0.00,Wunderground v.1.15,2013-04-17 06:40:00,
2013-04-17 02:45:00,61.2,58.9,30.19,East,95,0.0,1.0,92,0.00,,,0.00,Wunderground v.1.15,2013-04-17 06:45:00,
2013-04-17 02:50:00,61.2,58.9,30.19,East,95,0.0,1.0,92,0.00,,,0.00,Wunderground v.1.15,2013-04-17 06:50:00,
2013-04-17 02:55:00,61.1,58.8,30.19,East,95,0.0,1.0,92,0.00,,,0.00,Wunderground v.1.15,2013-04-17 06:55:00,
2013-04-17 03:00:00,61.0,58.7,30.19,East,95,0.0,1.0,92,0.00,,,0.00,Wunderground v.1.15,2013-04-17 07:00:00,
2013-04-17 03:10:00,60.7,58.4,30.18,East,95,0.0,1.0,92,0.00,,,0.00,Wunderground v.1.15,2013-04-17 07:10:00,
2013-04-17 03:15:00,60.6,58.3,30.18,East,95,0.0,1.0,92,0.00,,,0.00,Wunderground v.1.15,2013-04-17 07:15:00,
2013-04-17 03:20:00,60.5,58.2,30.18,East,95,0.0,1.0,92,0.00,,,0.00,Wunderground v.1.15,2013-04-17 07:20:00,
2013-04-17 03:25:00,60.4,58.1,30.18,East,95,0.0,1.0,92,0.00,,,0.00,Wunderground v.1.15,2013-04-17 07:25:00,
2013-04-17 03:30:00,60.3,58.0,30.18,East,95,0.0,1.0,92,0.00,,,0.00,Wunderground v.1.15,2013-04-17 07:30:00,
2013-04-17 03:35:00,60.2,57.9,30.18,East,95,0.0,1.0,92,0.00,,,0.00,Wunderground v.1.15,2013-04-17 07:35:00,
2013-04-17 03:40:00,60.1,57.8,30.18,East,95,0.0,1.0,92,0.00,,,0.00,Wunderground v.1.15,2013-04-17 07:40:00,
2013-04-17 03:45:00,60.0,57.7,30.18,East,95,0.0,1.0,92,0.00,,,0.00,Wunderground v.1.15,2013-04-17 07:45:00,
2013-04-17 03:50:00,59.8,57.5,30.18,East,95,0.0,1.0,92,0.00,,,0.00,Wunderground v.1.15,2013-04-17 07:50:00,
2013-04-17 03:55:00,59.7,57.4,30.17,East,95,0.0,1.0,92,0.00,,,0.00,Wunderground v.1.15,2013-04-17 07:55:00,
2013-04-17 04:00:00,59.6,57.3,30.17,East,95,0.0,1.0,92,0.00,,,0.00,Wunderground v.1.15,2013-04-17 08:00:00,
2013-04-17 04:05:00,59.4,57.1,30.17,East,95,0.0,1.0,92,0.00,,,0.00,Wunderground v.1.15,2013-04-17 08:05:00,
2013-04-17 04:15:00,59.1,56.8,30.17,East,95,0.0,1.0,92,0.00,,,0.00,Wunderground v.1.15,2013-04-17 08:15:00,
2013-04-17 04:20:00,59.0,57.0,30.17,East,95,0.0,1.0,93,0.00,,,0.00,Wunderground v.1.15,2013-04-17 08:20:00,
2013-04-17 04:25:00,59.0,57.0,30.17,East,95,0.0,1.0,93,0.00,,,0.00,Wunderground v.1.15,2013-04-17 08:25:00,
2013-04-17 04:30:00,59.0,57.0,30.17,East,95,0.0,1.0,93,0.00,,,0.00,Wunderground v.1.15,2013-04-17 08:30:00,
2013-04-17 04:35:00,59.0,57.0,30.17,East,95,0.0,1.0,93,0.00,,,0.00,Wunderground v.1.15,2013-04-17 08:35:00,
2013-04-17 04:45:00,58.9,56.9,30.17,East,95,0.0,1.0,93,0.00,,,0.00,Wunderground v.1.15,2013-04-17 08:45:00,
2013-04-17 04:50:00,58.7,56.7,30.17,East,95,0.0,1.0,93,0.00,,,0.00,Wunderground v.1.15,2013-04-17 08:50:00,
2013-04-17 04:55:00,58.5,56.5,30.17,East,95,0.0,1.0,93,0.00,,,0.00,Wunderground v.1.15,2013-04-17 08:55:00,
2013-04-17 05:00:00,58.4,56.4,30.17,East,95,0.0,1.0,93,0.00,,,0.00,Wunderground v.1.15,2013-04-17 09:00:00,
2013-04-17 05:05:00,58.3,56.3,30.17,East,95,0.0,1.0,93,0.00,,,0.00,Wunderground v.1.15,2013-04-17 09:05:00,
2013-04-17 05:15:00,58.2,56.2,30.17,East,95,0.0,1.0,93,0.00,,,0.00,Wunderground v.1.15,2013-04-17 09:15:00,
2013-04-17 05:20:00,58.1,56.1,30.18,East,95,0.0,1.0,93,0.00,,,0.00,Wunderground v.1.15,2013-04-17 09:20:00,
2013-04-17 05:25:00,58.1,56.1,30.18,East,95,0.0,1.0,93,0.00,,,0.00,Wunderground v.1.15,2013-04-17 09:25:00,
2013-04-17 05:30:00,58.1,56.1,30.18,East,95,0.0,1.0,93,0.00,,,0.00,Wunderground v.1.15,2013-04-17 09:30:00,
2013-04-17 05:35:00,58.1,56.1,30.17,East,95,0.0,1.0,93,0.00,,,0.00,Wunderground v.1.15,2013-04-17 09:35:00,
2013-04-17 05:40:00,58.0,56.0,30.17,East,95,0.0,1.0,93,0.00,,,0.00,Wunderground v.1.15,2013-04-17 09:40:00,
2013-04-17 05:45:00,58.0,56.3,30.17,East,95,0.0,1.0,94,0.00,,,0.00,Wunderground v.1.15,2013-04-17 09:45:00,
2013-04-17 05:50:00,58.0,56.3,30.17,East,95,0.0,1.0,94,0.00,,,0.00,Wunderground v.1.15,2013-04-17 09:50:00,
2013-04-17 05:55:00,57.9,56.2,30.17,East,95,0.0,1.0,94,0.00,,,0.00,Wunderground v.1.15,2013-04-17 09:55:00,
2013-04-17 06:00:00,57.9,56.2,30.18,East,95,0.0,1.0,94,0.00,,,0.00,Wunderground v.1.15,2013-04-17 10:00:00,
2013-04-17 06:05:00,57.9,56.2,30.18,East,95,0.0,1.0,94,0.00,,,0.00,Wunderground v.1.15,2013-04-17 10:05:00,
2013-04-17 06:10:00,57.8,56.1,30.18,East,95,0.0,1.0,94,0.00,,,0.00,Wunderground v.1.15,2013-04-17 10:10:00,
2013-04-17 06:20:00,57.8,56.1,30.18,East,95,0.0,1.0,94,0.00,,,0.00,Wunderground v.1.15,2013-04-17 10:20:00,
2013-04-17 06:25:00,57.7,56.0,30.19,East,95,0.0,1.0,94,0.00,,,0.00,Wunderground v.1.15,2013-04-17 10:25:00,
2013-04-17 06:30:00,57.7,56.0,30.19,East,95,0.0,1.0,94,0.00,,,0.00,Wunderground v.1.15,2013-04-17 10:30:00,
2013-04-17 06:35:00,57.6,55.9,30.19,East,95,0.0,1.0,94,0.00,,,0.00,Wunderground v.1.15,2013-04-17 10:35:00,
2013-04-17 06:40:00,57.6,55.9,30.20,East,95,0.0,1.0,94,0.00,,,0.00,Wunderground v.1.15,2013-04-17 10:40:00,
2013-04-17 06:50:00,57.5,55.8,30.20,East,95,0.0,1.0,94,0.00,,,0.00,Wunderground v.1.15,2013-04-17 10:50:00,
2013-04-17 06:55:00,57.4,55.7,30.20,East,95,0.0,1.0,94,0.00,,,0.00,Wunderground v.1.15,2013-04-17 10:55:00,
2013-04-17 07:00:00,57.4,55.7,30.20,East,95,0.0,1.0,94,0.00,,,0.00,Wunderground v.1.15,2013-04-17 11:00:00,
2013-04-17 07:05:00,57.4,55.7,30.20,East,95,0.0,1.0,94,0.00,,,0.00,Wunderground v.1.15,2013-04-17 11:05:00,
2013-04-17 07:10:00,57.4,55.7,30.20,East,95,0.0,1.0,94,0.00,,,0.00,Wunderground v.1.15,2013-04-17 11:10:00,
2013-04-17 07:20:00,57.4,55.7,30.21,East,95,0.0,1.0,94,0.00,,,0.00,Wunderground v.1.15,2013-04-17 11:20:00,
2013-04-17 07:25:00,57.5,56.1,30.21,East,95,0.0,1.0,95,0.00,,,0.00,Wunderground v.1.15,2013-04-17 11:25:00,
2013-04-17 07:30:00,57.7,56.3,30.21,East,95,0.0,1.0,95,0.00,,,0.00,Wunderground v.1.15,2013-04-17 11:30:00,
2013-04-17 07:35:00,57.9,56.8,30.21,East,95,0.0,1.0,96,0.00,,,0.00,Wunderground v.1.15,2013-04-17 11:35:00,
2013-04-17 07:40:00,57.9,56.5,30.21,East,95,0.0,1.0,95,0.00,,,0.00,Wunderground v.1.15,2013-04-17 11:40:00,
2013-04-17 07:45:00,58.0,56.6,30.21,East,95,0.0,1.0,95,0.00,,,0.00,Wunderground v.1.15,2013-04-17 11:45:00,
2013-04-17 07:55:00,58.0,56.6,30.21,East,95,0.0,1.0,95,0.00,,,0.00,Wunderground v.1.15,2013-04-17 11:55:00,
2013-04-17 08:00:00,58.0,56.6,30.22,East,95,0.0,1.0,95,0.00,,,0.00,Wunderground v.1.15,2013-04-17 12:00:00,
2013-04-17 08:05:00,58.1,56.7,30.22,East,95,0.0,1.0,95,0.00,,,0.00,Wunderground v.1.15,2013-04-17 12:05:00,
2013-04-17 08:10:00,58.3,57.2,30.22,East,95,0.0,1.0,96,0.00,,,0.00,Wunderground v.1.15,2013-04-17 12:10:00,
2013-04-17 08:15:00,58.5,57.4,30.22,East,95,0.0,1.0,96,0.00,,,0.00,Wunderground v.1.15,2013-04-17 12:15:00,
2013-04-17 08:25:00,59.4,58.5,30.21,East,95,0.0,1.0,97,0.00,,,0.00,Wunderground v.1.15,2013-04-17 12:25:00,
2013-04-17 08:30:00,60.1,59.2,30.21,East,95,0.0,1.0,97,0.00,,,0.00,Wunderground v.1.15,2013-04-17 12:30:00,
2013-04-17 08:35:00,60.5,59.6,30.21,East,95,0.0,1.0,97,0.00,,,0.00,Wunderground v.1.15,2013-04-17 12:35:00,
2013-04-17 08:40:00,62.4,61.8,30.20,East,95,0.0,1.0,98,0.00,,,0.00,Wunderground v.1.15,2013-04-17 12:40:00,
2013-04-17 08:45:00,63.3,62.4,30.20,East,95,0.0,1.0,97,0.00,,,0.00,Wunderground v.1.15,2013-04-17 12:45:00,
2013-04-17 08:55:00,64.0,62.5,30.19,East,95,0.0,1.0,95,0.00,,,0.00,Wunderground v.1.15,2013-04-17 12:55:00,
2013-04-17 09:00:00,64.4,62.9,30.19,East,95,0.0,1.0,95,0.00,,,0.00,Wunderground v.1.15,2013-04-17 13:00:00,
2013-04-17 09:05:00,64.9,62.8,30.20,East,95,0.0,1.0,93,0.00,,,0.00,Wunderground v.1.15,2013-04-17 13:05:00,
2013-04-17 09:10:00,65.7,63.6,30.19,East,95,0.0,1.0,93,0.00,,,0.00,Wunderground v.1.15,2013-04-17 13:10:00,
2013-04-17 09:15:00,66.5,63.8,30.19,ESE,117,0.0,1.0,91,0.00,,,0.00,Wunderground v.1.15,2013-04-17 13:15:00,
2013-04-17 09:25:00,67.4,64.4,30.18,SE,126,0.0,1.0,90,0.00,,,0.00,Wunderground v.1.15,2013-04-17 13:25:00,
2013-04-17 09:30:00,67.5,64.1,30.19,SE,126,0.0,1.0,89,0.00,,,0.00,Wunderground v.1.15,2013-04-17 13:30:00,
2013-04-17 09:35:00,67.6,64.2,30.19,SE,125,0.0,1.0,89,0.00,,,0.00,Wunderground v.1.15,2013-04-17 13:35:00,
2013-04-17 09:40:00,67.6,64.2,30.19,SE,126,0.0,1.0,89,0.00,,,0.00,Wunderground v.1.15,2013-04-17 13:40:00,
2013-04-17 09:45:00,67.6,63.9,30.19,SE,126,0.0,1.0,88,0.00,,,0.00,Wunderground v.1.15,2013-04-17 13:45:00,
2013-04-17 09:50:00,68.5,64.5,30.19,SE,126,0.0,1.0,87,0.00,,,0.00,Wunderground v.1.15,2013-04-17 13:50:00,
2013-04-17 10:00:00,69.6,63.9,30.19,SE,126,0.0,1.0,82,0.00,,,0.00,Wunderground v.1.15,2013-04-17 14:00:00,
2013-04-17 10:05:00,69.7,63.6,30.19,SE,126,0.0,1.0,81,0.00,,,0.00,Wunderground v.1.15,2013-04-17 14:05:00,
2013-04-17 10:10:00,69.8,63.3,30.18,WSW,251,0.0,1.0,80,0.00,,,0.00,Wunderground v.1.15,2013-04-17 14:10:00,
2013-04-17 10:15:00,70.2,64.1,30.18,WSW,244,0.0,1.0,81,0.00,,,0.00,Wunderground v.1.15,2013-04-17 14:15:00,
2013-04-17 10:20:00,70.4,63.9,30.18,South,169,0.0,1.0,80,0.00,,,0.00,Wunderground v.1.15,2013-04-17 14:20:00,
2013-04-17 10:30:00,71.3,64.4,30.18,South,186,0.0,1.0,79,0.00,,,0.00,Wunderground v.1.15,2013-04-17 14:30:00,
2013-04-17 10:35:00,71.2,64.4,30.18,WNW,294,0.0,1.0,79,0.00,,,0.00,Wunderground v.1.15,2013-04-17 14:35:00,
2013-04-17 10:40:00,71.5,64.6,30.18,South,184,0.0,1.0,79,0.00,,,0.00,Wunderground v.1.15,2013-04-17 14:40:00,
2013-04-17 10:45:00,71.8,64.6,30.18,South,188,0.0,1.0,78,0.00,,,0.00,Wunderground v.1.15,2013-04-17 14:45:00,
2013-04-17 10:50:00,71.9,64.7,30.18,South,186,0.0,1.0,78,0.00,,,0.00,Wunderground v.1.15,2013-04-17 14:50:00,
2013-04-17 11:00:00,72.5,65.2,30.18,South,190,0.0,1.0,78,0.00,,,0.00,Wunderground v.1.15,2013-04-17 15:00:00,
2013-04-17 11:05:00,73.1,65.1,30.18,South,190,0.0,1.0,76,0.00,,,0.00,Wunderground v.1.15,2013-04-17 15:05:00,
2013-04-17 11:10:00,73.5,65.1,30.18,South,179,0.0,1.0,75,0.00,,,0.00,Wunderground v.1.15,2013-04-17 15:10:00,
2013-04-17 11:15:00,73.6,64.8,30.18,South,175,0.0,2.0,74,0.00,,,0.00,Wunderground v.1.15,2013-04-17 15:15:00,
2013-04-17 11:20:00,73.9,64.7,30.18,South,174,0.0,1.0,73,0.00,,,0.00,Wunderground v.1.15,2013-04-17 15:20:00,
2013-04-17 11:30:00,74.6,65.0,30.18,South,174,0.0,1.0,72,0.00,,,0.00,Wunderground v.1.15,2013-04-17 15:30:00,
2013-04-17 11:35:00,75.5,65.8,30.18,South,174,0.0,1.0,72,0.00,,,0.00,Wunderground v.1.15,2013-04-17 15:35:00,
2013-04-17 11:40:00,75.5,65.0,30.17,South,183,0.0,1.0,70,0.00,,,0.00,Wunderground v.1.15,2013-04-17 15:40:00,
2013-04-17 11:45:00,75.4,65.3,30.17,South,183,0.0,1.0,71,0.00,,,0.00,Wunderground v.1.15,2013-04-17 15:45:00,
2013-04-17 11:50:00,76.2,65.7,30.17,WNW,288,0.0,1.0,70,0.00,,,0.00,Wunderground v.1.15,2013-04-17 15:50:00,
2013-04-17 11:55:00,76.0,65.1,30.17,NNW,332,0.0,1.0,69,0.00,,,0.00,Wunderground v.1.15,2013-04-17 15:55:00,
2013-04-17 12:05:00,76.8,65.9,30.17,NW,305,0.0,1.0,69,0.00,,,0.00,Wunderground v.1.15,2013-04-17 16:05:00,
2013-04-17 12:10:00,76.5,64.3,30.16,NW,324,0.0,1.0,66,0.00,,,0.00,Wunderground v.1.15,2013-04-17 16:10:00,
2013-04-17 12:15:00,76.6,64.4,30.16,NNE,21,0.0,1.0,66,0.00,,,0.00,Wunderground v.1.15,2013-04-17 16:15:00,
2013-04-17 12:20:00,77.1,64.4,30.16,NNE,16,0.0,1.0,65,0.00,,,0.00,Wunderground v.1.15,2013-04-17 16:20:00,
2013-04-17 12:25:00,77.5,65.2,30.15,East,96,0.0,1.0,66,0.00,,,0.00,Wunderground v.1.15,2013-04-17 16:25:00,
2013-04-17 12:35:00,77.8,65.5,30.15,South,180,0.0,1.0,66,0.00,,,0.00,Wunderground v.1.15,2013-04-17 16:35:00,
2013-04-17 12:40:00,78.5,65.8,30.15,South,180,0.0,1.0,65,0.00,,,0.00,Wunderground v.1.15,2013-04-17 16:40:00,
2013-04-17 12:45:00,78.4,65.2,30.15,South,176,0.0,2.0,64,0.00,,,0.00,Wunderground v.1.15,2013-04-17 16:45:00,
2013-04-17 12:50:00,78.7,65.5,30.15,WSW,238,0.0,1.0,64,0.00,,,0.00,Wunderground v.1.15,2013-04-17 16:50:00,
2013-04-17 12:55:00,78.5,65.3,30.15,North,351,0.0,1.0,64,0.00,,,0.00,Wunderground v.1.15,2013-04-17 16:55:00,
2013-04-17 13:05:00,78.7,65.9,30.15,North,360,0.0,1.0,65,0.00,,,0.00,Wunderground v.1.15,2013-04-17 17:05:00,
2013-04-17 13:10:00,78.7,65.9,30.15,North,360,0.0,1.0,65,0.00,,,0.00,Wunderground v.1.15,2013-04-17 17:10:00,
2013-04-17 13:15:00,78.6,65.4,30.14,North,360,0.0,1.0,64,0.00,,,0.00,Wunderground v.1.15,2013-04-17 17:15:00,
2013-04-17 13:20:00,78.4,64.8,30.14,North,5,0.0,1.0,63,0.00,,,0.00,Wunderground v.1.15,2013-04-17 17:20:00,
2013-04-17 13:25:00,79.1,64.0,30.14,SE,144,0.0,1.0,60,0.00,,,0.00,Wunderground v.1.15,2013-04-17 17:25:00,
2013-04-17 13:35:00,79.0,63.9,30.14,SE,144,0.0,1.0,60,0.00,,,0.00,Wunderground v.1.15,2013-04-17 17:35:00,
2013-04-17 13:40:00,79.1,65.4,30.14,SE,144,0.0,1.0,63,0.00,,,0.00,Wunderground v.1.15,2013-04-17 17:40:00,
2013-04-17 13:45:00,80.0,65.3,30.13,South,179,0.0,1.0,61,0.00,,,0.00,Wunderground v.1.15,2013-04-17 17:45:00,
2013-04-17 13:50:00,80.6,65.9,30.13,ESE,102,0.0,2.0,61,0.00,,,0.00,Wunderground v.1.15,2013-04-17 17:50:00,
2013-04-17 13:55:00,79.7,64.6,30.13,ESE,102,0.0,2.0,60,0.00,,,0.00,Wunderground v.1.15,2013-04-17 17:55:00,
2013-04-17 14:00:00,80.1,65.4,30.13,ESE,102,0.0,1.0,61,0.00,,,0.00,Wunderground v.1.15,2013-04-17 18:00:00,
2013-04-17 14:10:00,81.0,64.8,30.13,ESE,119,0.0,1.0,58,0.00,,,0.00,Wunderground v.1.15,2013-04-17 18:10:00,
2013-04-17 14:15:00,80.9,65.7,30.12,ESE,119,0.0,1.0,60,0.00,,,0.00,Wunderground v.1.15,2013-04-17 18:15:00,
2013-04-17 14:20:00,82.6,66.3,30.12,SE,131,0.0,1.0,58,0.00,,,0.00,Wunderground v.1.15,2013-04-17 18:20:00,
2013-04-17 14:25:00,82.1,64.8,30.12,SE,131,0.0,1.0,56,0.00,,,0.00,Wunderground v.1.15,2013-04-17 18:25:00,
2013-04-17 14:30:00,81.8,65.1,30.12,SE,130,0.0,1.0,57,0.00,,,0.00,Wunderground v.1.15,2013-04-17 18:30:00,
2013-04-17 14:35:00,81.2,66.0,30.12,SE,131,0.0,1.0,60,0.00,,,0.00,Wunderground v.1.15,2013-04-17 18:35:00,
2013-04-17 14:40:00,81.3,65.1,30.12,SE,130,0.0,1.0,58,0.00,,,0.00,Wunderground v.1.15,2013-04-17 18:40:00,
2013-04-17 14:45:00,80.9,64.7,30.11,SSE,167,0.0,1.0,58,0.00,,,0.00,Wunderground v.1.15,2013-04-17 18:45:00,
2013-04-17 14:50:00,80.6,64.5,30.12,SSE,167,0.0,1.0,58,0.00,,,0.00,Wunderground v.1.15,2013-04-17 18:50:00,
2013-04-17 14:55:00,80.3,64.7,30.12,SSE,167,0.0,1.0,59,0.00,,,0.00,Wunderground v.1.15,2013-04-17 18:55:00,
2013-04-17 15:00:00,80.5,64.9,30.11,SSE,167,0.0,1.0,59,0.00,,,0.00,Wunderground v.1.15,2013-04-17 19:00:00,
2013-04-17 15:10:00,80.3,64.7,30.11,SSE,167,0.0,1.0,59,0.00,,,0.00,Wunderground v.1.15,2013-04-17 19:10:00,
2013-04-17 15:15:00,80.3,64.7,30.11,SSE,167,0.0,1.0,59,0.00,,,0.00,Wunderground v.1.15,2013-04-17 19:15:00,
2013-04-17 15:20:00,80.3,65.1,30.10,SSE,167,0.0,1.0,60,0.00,,,0.00,Wunderground v.1.15,2013-04-17 19:20:00,
2013-04-17 15:25:00,80.3,65.1,30.10,SSE,167,0.0,1.0,60,0.00,,,0.00,Wunderground v.1.15,2013-04-17 19:25:00,
2013-04-17 15:30:00,80.2,65.1,30.10,SSE,167,0.0,1.0,60,0.00,,,0.00,Wunderground v.1.15,2013-04-17 19:30:00,
2013-04-17 15:35:00,80.1,65.0,30.10,SSE,167,0.0,1.0,60,0.00,,,0.00,Wunderground v.1.15,2013-04-17 19:35:00,
2013-04-17 15:40:00,79.9,65.2,30.09,SSE,167,0.0,1.0,61,0.00,,,0.00,Wunderground v.1.15,2013-04-17 19:40:00,
2013-04-17 15:45:00,79.9,65.2,30.09,SSE,167,0.0,1.0,61,0.00,,,0.00,Wunderground v.1.15,2013-04-17 19:45:00,
2013-04-17 15:50:00,79.8,65.6,30.09,SSE,167,0.0,1.0,62,0.00,,,0.00,Wunderground v.1.15,2013-04-17 19:50:00,
2013-04-17 15:55:00,79.5,65.3,30.09,SSE,167,0.0,1.0,62,0.00,,,0.00,Wunderground v.1.15,2013-04-17 19:55:00,
2013-04-17 16:00:00,79.3,66.1,30.09,SSE,167,0.0,1.0,64,0.00,,,0.00,Wunderground v.1.15,2013-04-17 20:00:00,
2013-04-17 16:05:00,78.8,66.0,30.09,SSE,167,0.0,1.0,65,0.00,,,0.00,Wunderground v.1.15,2013-04-17 20:05:00,
2013-04-17 16:15:00,78.5,66.2,30.09,SSE,167,0.0,1.0,66,0.00,,,0.00,Wunderground v.1.15,2013-04-17 20:15:00,
2013-04-17 16:20:00,78.6,66.3,30.09,SSE,167,0.0,1.0,66,0.00,,,0.00,Wunderground v.1.15,2013-04-17 20:20:00,
2013-04-17 16:25:00,78.3,66.0,30.09,SSE,167,0.0,1.0,66,0.00,,,0.00,Wunderground v.1.15,2013-04-17 20:25:00,
2013-04-17 16:30:00,78.2,66.3,30.09,SSE,167,0.0,1.0,67,0.00,,,0.00,Wunderground v.1.15,2013-04-17 20:30:00,
2013-04-17 16:35:00,78.1,66.2,30.09,SSE,167,0.0,1.0,67,0.00,,,0.00,Wunderground v.1.15,2013-04-17 20:35:00,
2013-04-17 16:40:00,78.0,66.2,30.09,SSE,167,0.0,1.0,67,0.00,,,0.00,Wunderground v.1.15,2013-04-17 20:40:00,
2013-04-17 16:45:00,77.8,66.0,30.09,SSE,167,0.0,1.0,67,0.00,,,0.00,Wunderground v.1.15,2013-04-17 20:45:00,
2013-04-17 16:50:00,77.7,66.3,30.09,SSE,167,0.0,1.0,68,0.00,,,0.00,Wunderground v.1.15,2013-04-17 20:50:00,
2013-04-17 16:55:00,77.8,66.4,30.08,SSE,167,0.0,1.0,68,0.00,,,0.00,Wunderground v.1.15,2013-04-17 20:55:00,
2013-04-17 17:00:00,77.8,66.4,30.08,SSE,167,0.0,1.0,68,0.00,,,0.00,Wunderground v.1.15,2013-04-17 21:00:00,
2013-04-17 17:05:00,77.8,67.2,30.08,SSE,167,0.0,1.0,70,0.00,,,0.00,Wunderground v.1.15,2013-04-17 21:05:00,
2013-04-17 17:15:00,78.0,67.0,30.08,SSE,167,0.0,1.0,69,0.00,,,0.00,Wunderground v.1.15,2013-04-17 21:15:00,
2013-04-17 17:20:00,78.2,67.2,30.08,SSE,167,0.0,1.0,69,0.00,,,0.00,Wunderground v.1.15,2013-04-17 21:20:00,
2013-04-17 17:25:00,78.2,67.6,30.08,SSE,167,0.0,1.0,70,0.00,,,0.00,Wunderground v.1.15,2013-04-17 21:25:00,
2013-04-17 17:30:00,78.2,67.2,30.07,SSE,167,0.0,1.0,69,0.00,,,0.00,Wunderground v.1.15,2013-04-17 21:30:00,
2013-04-17 17:35:00,78.2,67.2,30.08,SSE,167,0.0,1.0,69,0.00,,,0.00,Wunderground v.1.15,2013-04-17 21:35:00,
2013-04-17 17:40:00,78.3,67.7,30.08,SSE,167,0.0,1.0,70,0.00,,,0.00,Wunderground v.1.15,2013-04-17 21:40:00,
2013-04-17 17:45:00,78.3,67.3,30.08,SSE,167,0.0,1.0,69,0.00,,,0.00,Wunderground v.1.15,2013-04-17 21:45:00,
2013-04-17 17:50:00,78.3,66.9,30.08,SSE,167,0.0,1.0,68,0.00,,,0.00,Wunderground v.1.15,2013-04-17 21:50:00,
2013-04-17 17:55:00,78.3,66.4,30.08,SSE,167,0.0,1.0,67,0.00,,,0.00,Wunderground v.1.15,2013-04-17 21:55:00,
2013-04-17 18:00:00,78.4,66.5,30.08,SSE,167,0.0,1.0,67,0.00,,,0.00,Wunderground v.1.15,2013-04-17 22:00:00,
2013-04-17 18:05:00,78.4,66.1,30.08,SSE,167,0.0,1.0,66,0.00,,,0.00,Wunderground v.1.15,2013-04-17 22:05:00,
2013-04-17 18:10:00,78.5,65.8,30.08,SSE,167,0.0,1.0,65,0.00,,,0.00,Wunderground v.1.15,2013-04-17 22:10:00,
2013-04-17 18:20:00,78.7,65.9,30.08,SSE,167,0.0,1.0,65,0.00,,,0.00,Wunderground v.1.15,2013-04-17 22:20:00,
2013-04-17 18:25:00,78.7,65.9,30.08,SSE,167,0.0,1.0,65,0.00,,,0.00,Wunderground v.1.15,2013-04-17 22:25:00,
2013-04-17 18:35:00,78.7,65.5,30.08,SSE,167,0.0,1.0,64,0.00,,,0.00,Wunderground v.1.15,2013-04-17 22:35:00,
2013-04-17 18:40:00,78.7,65.5,30.08,SSE,167,0.0,1.0,64,0.00,,,0.00,Wunderground v.1.15,2013-04-17 22:40:00,
2013-04-17 18:45:00,78.7,65.5,30.08,SSE,167,0.0,1.0,64,0.00,,,0.00,Wunderground v.1.15,2013-04-17 22:45:00,
2013-04-17 18:50:00,78.7,65.9,30.08,SSE,167,0.0,1.0,65,0.00,,,0.00,Wunderground v.1.15,2013-04-17 22:50:00,
2013-04-17 18:55:00,78.7,65.9,30.08,SSE,167,0.0,1.0,65,0.00,,,0.00,Wunderground v.1.15,2013-04-17 22:55:00,
2013-04-17 19:00:00,78.7,65.9,30.08,SSE,167,0.0,1.0,65,0.00,,,0.00,Wunderground v.1.15,2013-04-17 23:00:00,
2013-04-17 19:10:00,78.5,66.2,30.08,SSE,167,0.0,1.0,66,0.00,,,0.00,Wunderground v.1.15,2013-04-17 23:10:00,
2013-04-17 19:20:00,78.0,66.6,30.08,SSE,167,0.0,1.0,68,0.00,,,0.00,Wunderground v.1.15,2013-04-17 23:20:00,
2013-04-17 19:25:00,77.8,66.4,30.08,SSE,167,0.0,1.0,68,0.00,,,0.00,Wunderground v.1.15,2013-04-17 23:25:00,
2013-04-17 19:30:00,77.5,66.1,30.08,SSE,167,0.0,1.0,68,0.00,,,0.00,Wunderground v.1.15,2013-04-17 23:30:00,
2013-04-17 19:40:00,76.9,65.5,30.08,SSE,167,0.0,1.0,68,0.00,,,0.00,Wunderground v.1.15,2013-04-17 23:40:00,
2013-04-17 19:45:00,76.7,65.3,30.08,SSE,167,0.0,1.0,68,0.00,,,0.00,Wunderground v.1.15,2013-04-17 23:45:00,
2013-04-17 19:55:00,76.2,65.3,30.08,SSE,167,0.0,1.0,69,0.00,,,0.00,Wunderground v.1.15,2013-04-17 23:55:00,
2013-04-17 20:05:00,75.7,64.4,30.09,SSE,168,0.0,1.0,68,0.00,,,0.00,Wunderground v.1.15,2013-04-18 00:05:00,
2013-04-17 20:15:00,75.3,64.4,30.09,SSE,168,0.0,1.0,69,0.00,,,0.00,Wunderground v.1.15,2013-04-18 00:15:00,
2013-04-17 20:20:00,75.0,64.5,30.09,SSE,168,0.0,1.0,70,0.00,,,0.00,Wunderground v.1.15,2013-04-18 00:20:00,
2013-04-17 20:30:00,74.6,64.2,30.10,SSE,168,0.0,1.0,70,0.00,,,0.00,Wunderground v.1.15,2013-04-18 00:30:00,
2013-04-17 20:40:00,74.2,63.8,30.10,SSE,168,0.0,1.0,70,0.00,,,0.00,Wunderground v.1.15,2013-04-18 00:40:00,
2013-04-17 20:50:00,73.9,63.9,30.10,SSE,168,0.0,1.0,71,0.00,,,0.00,Wunderground v.1.15,2013-04-18 00:50:00,
2013-04-17 20:55:00,73.8,63.8,30.10,SSE,168,0.0,1.0,71,0.00,,,0.00,Wunderground v.1.15,2013-04-18 00:55:00,
2013-04-17 21:05:00,73.4,63.4,30.11,SSE,168,0.0,1.0,71,0.00,,,0.00,Wunderground v.1.15,2013-04-18 01:05:00,
2013-04-17 21:15:00,73.2,63.6,30.12,SSE,168,0.0,1.0,72,0.00,,,0.00,Wunderground v.1.15,2013-04-18 01:15:00,
2013-04-17 21:25:00,73.0,63.8,30.12,South,171,0.0,1.0,73,0.00,,,0.00,Wunderground v.1.15,2013-04-18 01:25:00,
2013-04-17 21:35:00,72.8,63.2,30.13,South,187,0.0,1.0,72,0.00,,,0.00,Wunderground v.1.15,2013-04-18 01:35:00,
2013-04-17 21:40:00,72.8,63.2,30.13,South,187,0.0,1.0,72,0.00,,,0.00,Wunderground v.1.15,2013-04-18 01:40:00,
2013-04-17 21:45:00,72.7,63.1,30.13,South,182,0.0,1.0,72,0.00,,,0.00,Wunderground v.1.15,2013-04-18 01:45:00,
2013-04-17 21:55:00,72.6,63.4,30.13,South,182,0.0,1.0,73,0.00,,,0.00,Wunderground v.1.15,2013-04-18 01:55:00,
2013-04-17 22:00:00,72.5,63.4,30.13,South,182,0.0,1.0,73,0.00,,,0.00,Wunderground v.1.15,2013-04-18 02:00:00,
2013-04-17 22:05:00,72.4,63.3,30.13,South,182,0.0,1.0,73,0.00,,,0.00,Wunderground v.1.15,2013-04-18 02:05:00,
2013-04-17 22:10:00,72.2,63.1,30.13,South,182,0.0,1.0,73,0.00,,,0.00,Wunderground v.1.15,2013-04-18 02:10:00,
2013-04-17 22:15:00,72.1,63.0,30.13,South,182,0.0,0.0,73,0.00,,,0.00,Wunderground v.1.15,2013-04-18 02:15:00,
2013-04-17 22:25:00,71.7,62.2,30.13,South,183,0.0,1.0,72,0.00,,,0.00,Wunderground v.1.15,2013-04-18 02:25:00,
2013-04-17 22:30:00,71.4,61.1,30.13,South,183,0.0,1.0,70,0.00,,,0.00,Wunderground v.1.15,2013-04-18 02:30:00,
2013-04-17 22:35:00,71.3,61.0,30.13,South,183,0.0,0.0,70,0.00,,,0.00,Wunderground v.1.15,2013-04-18 02:35:00,
2013-04-17 22:45:00,71.0,60.3,30.14,South,183,0.0,0.0,69,0.00,,,0.00,Wunderground v.1.15,2013-04-18 02:45:00,
2013-04-17 22:50:00,70.8,59.7,30.14,South,183,0.0,0.0,68,0.00,,,0.00,Wunderground v.1.15,2013-04-18 02:50:00,
2013-04-17 22:55:00,70.7,59.6,30.14,South,178,0.0,0.0,68,0.00,,,0.00,Wunderground v.1.15,2013-04-18 02:55:00,
2013-04-17 23:00:00,70.5,59.4,30.14,South,178,0.0,0.0,68,0.00,,,0.00,Wunderground v.1.15,2013-04-18 03:00:00,
2013-04-17 23:05:00,70.4,59.3,30.14,South,178,0.0,0.0,68,0.00,,,0.00,Wunderground v.1.15,2013-04-18 03:05:00,
2013-04-17 23:10:00,70.3,59.6,30.14,South,178,0.0,0.0,69,0.00,,,0.00,Wunderground v.1.15,2013-04-18 03:10:00,
2013-04-17 23:15:00,70.1,59.5,30.14,South,178,0.0,1.0,69,0.00,,,0.00,Wunderground v.1.15,2013-04-18 03:15:00,
2013-04-17 23:20:00,69.9,59.3,30.14,South,178,0.0,1.0,69,0.00,,,0.00,Wunderground v.1.15,2013-04-18 03:20:00,
2013-04-17 23:25:00,69.8,59.2,30.14,South,178,0.0,1.0,69,0.00,,,0.00,Wunderground v.1.15,2013-04-18 03:25:00,
2013-04-17 23:30:00,69.6,59.0,30.14,South,178,0.0,1.0,69,0.00,,,0.00,Wunderground v.1.15,2013-04-18 03:30:00,
2013-04-17 23:35:00,69.5,59.3,30.14,South,178,0.0,1.0,70,0.00,,,0.00,Wunderground v.1.15,2013-04-18 03:35:00,
2013-04-17 23:40:00,69.3,59.1,30.14,South,178,0.0,1.0,70,0.00,,,0.00,Wunderground v.1.15,2013-04-18 03:40:00,
2013-04-17 23:50:00,69.1,58.9,30.14,South,178,0.0,1.0,70,0.00,,,0.00,Wunderground v.1.15,2013-04-18 03:50:00,
2013-04-17 23:55:00,68.9,59.1,30.14,South,178,0.0,1.0,71,0.00,,,0.00,Wunderground v.1.15,2013-04-18 03:55:00,